Fukushima, Japan
Current Conditions -  °F | °C
As of 9:00 AM on Thursday 29 Jan 2015 (Local Time) from RJCH Reporting Station
Snow Showers Snow Showers  
Wind Chill: 23°   Ceiling: 4000
Heat Index: 23°   Visibility: 4mi
Dew Point: 21°   Wind: 3mph
Humidity: 93%   Direction: 20°NNE
Pressure: 30.24"   Gusts: NA
Location:  41.48°N, 140.25°E
Report Text: RJCH 290000Z 02003KT 300V070 6000 -SHSN FEW006 SCT020 BKN040 M05/M06 Q1024
Loading
Personal Weather Stations






























Interactive Weather Map New forecast layout! Learn more

10-Day Weather Forecast

Advertisements
Track Severe Weather on mobile